sensor_id;sensor_type;location;lat;lon;timestamp;P1;durP1;ratioP1;P2;durP2;ratioP2
19651;SDS011;9974;52.146;14.668;2022-09-29T00:00:36;8.10;;;5.97;;
19651;SDS011;9974;52.146;14.668;2022-09-29T00:03:02;8.50;;;5.80;;
19651;SDS011;9974;52.146;14.668;2022-09-29T00:05:29;8.83;;;6.67;;
19651;SDS011;9974;52.146;14.668;2022-09-29T00:07:55;8.13;;;5.70;;
19651;SDS011;9974;52.146;14.668;2022-09-29T00:10:21;9.03;;;6.20;;
19651;SDS011;9974;52.146;14.668;2022-09-29T00:12:47;7.03;;;5.70;;
19651;SDS011;9974;52.146;14.668;2022-09-29T00:15:14;7.87;;;6.30;;
19651;SDS011;9974;52.146;14.668;2022-09-29T00:17:40;9.30;;;5.90;;
19651;SDS011;9974;52.146;14.668;2022-09-29T00:20:05;7.57;;;6.10;;
19651;SDS011;9974;52.146;14.668;2022-09-29T00:22:31;6.60;;;5.00;;
19651;SDS011;9974;52.146;14.668;2022-09-29T00:24:57;8.00;;;5.63;;
19651;SDS011;9974;52.146;14.668;2022-09-29T00:27:23;6.73;;;5.43;;
19651;SDS011;9974;52.146;14.668;2022-09-29T00:29:49;7.40;;;5.57;;
19651;SDS011;9974;52.146;14.668;2022-09-29T00:32:15;7.30;;;5.77;;
19651;SDS011;9974;52.146;14.668;2022-09-29T00:34:41;10.03;;;5.80;;
19651;SDS011;9974;52.146;14.668;2022-09-29T00:37:08;7.30;;;5.80;;
19651;SDS011;9974;52.146;14.668;2022-09-29T00:39:34;6.90;;;5.23;;
19651;SDS011;9974;52.146;14.668;2022-09-29T00:42:00;5.90;;;4.57;;
19651;SDS011;9974;52.146;14.668;2022-09-29T00:47:43;6.50;;;5.20;;
19651;SDS011;9974;52.146;14.668;2022-09-29T00:50:25;6.97;;;5.33;;
19651;SDS011;9974;52.146;14.668;2022-09-29T00:53:09;6.77;;;5.47;;
19651;SDS011;9974;52.146;14.668;2022-09-29T00:55:37;7.33;;;5.33;;
19651;SDS011;9974;52.146;14.668;2022-09-29T00:58:10;9.90;;;5.67;;
19651;SDS011;9974;52.146;14.668;2022-09-29T01:00:52;7.37;;;5.97;;
19651;SDS011;9974;52.146;14.668;2022-09-29T01:03:19;8.23;;;6.60;;
19651;SDS011;9974;52.146;14.668;2022-09-29T01:05:53;9.23;;;6.53;;
19651;SDS011;9974;52.146;14.668;2022-09-29T01:08:27;8.70;;;6.20;;
19651;SDS011;9974;52.146;14.668;2022-09-29T01:11:00;8.50;;;6.50;;
19651;SDS011;9974;52.146;14.668;2022-09-29T01:13:28;9.17;;;6.93;;
19651;SDS011;9974;52.146;14.668;2022-09-29T01:15:54;9.33;;;7.13;;
19651;SDS011;9974;52.146;14.668;2022-09-29T01:18:20;8.93;;;6.80;;
19651;SDS011;9974;52.146;14.668;2022-09-29T01:20:56;8.40;;;6.63;;
19651;SDS011;9974;52.146;14.668;2022-09-29T01:35:36;10.13;;;7.53;;
19651;SDS011;9974;52.146;14.668;2022-09-29T01:41:27;8.93;;;7.00;;
19651;SDS011;9974;52.146;14.668;2022-09-29T01:44:21;9.47;;;7.10;;
19651;SDS011;9974;52.146;14.668;2022-09-29T01:46:56;8.67;;;6.80;;
19651;SDS011;9974;52.146;14.668;2022-09-29T01:49:30;8.37;;;6.87;;
19651;SDS011;9974;52.146;14.668;2022-09-29T01:52:06;8.13;;;6.77;;
19651;SDS011;9974;52.146;14.668;2022-09-29T01:57:54;8.93;;;6.47;;
19651;SDS011;9974;52.146;14.668;2022-09-29T02:00:28;9.63;;;7.17;;
19651;SDS011;9974;52.146;14.668;2022-09-29T02:03:14;7.33;;;5.93;;
19651;SDS011;9974;52.146;14.668;2022-09-29T02:05:52;8.37;;;6.47;;
19651;SDS011;9974;52.146;14.668;2022-09-29T02:08:31;9.47;;;7.30;;
19651;SDS011;9974;52.146;14.668;2022-09-29T02:11:04;9.27;;;8.00;;
19651;SDS011;9974;52.146;14.668;2022-09-29T02:13:34;15.73;;;7.50;;
19651;SDS011;9974;52.146;14.668;2022-09-29T02:16:14;8.77;;;7.10;;
19651;SDS011;9974;52.146;14.668;2022-09-29T02:18:47;8.87;;;7.07;;
19651;SDS011;9974;52.146;14.668;2022-09-29T02:21:17;10.27;;;8.07;;
19651;SDS011;9974;52.146;14.668;2022-09-29T02:23:43;9.70;;;7.70;;
19651;SDS011;9974;52.146;14.668;2022-09-29T02:26:09;9.53;;;7.53;;
19651;SDS011;9974;52.146;14.668;2022-09-29T02:28:36;10.83;;;8.50;;
19651;SDS011;9974;52.146;14.668;2022-09-29T02:31:03;9.70;;;7.73;;
19651;SDS011;9974;52.146;14.668;2022-09-29T02:33:30;8.73;;;7.23;;
19651;SDS011;9974;52.146;14.668;2022-09-29T02:36:17;10.03;;;7.90;;
19651;SDS011;9974;52.146;14.668;2022-09-29T02:41:59;8.80;;;6.97;;
19651;SDS011;9974;52.146;14.668;2022-09-29T02:44:59;8.80;;;6.93;;
19651;SDS011;9974;52.146;14.668;2022-09-29T02:48:07;12.00;;;7.07;;
19651;SDS011;9974;52.146;14.668;2022-09-29T02:59:44;9.80;;;7.23;;
19651;SDS011;9974;52.146;14.668;2022-09-29T03:02:40;9.30;;;6.70;;
19651;SDS011;9974;52.146;14.668;2022-09-29T03:05:07;11.90;;;8.30;;
19651;SDS011;9974;52.146;14.668;2022-09-29T03:07:43;12.17;;;8.27;;
19651;SDS011;9974;52.146;14.668;2022-09-29T03:10:09;11.40;;;8.63;;
19651;SDS011;9974;52.146;14.668;2022-09-29T03:12:36;9.80;;;7.47;;
19651;SDS011;9974;52.146;14.668;2022-09-29T03:15:03;10.10;;;8.13;;
19651;SDS011;9974;52.146;14.668;2022-09-29T03:17:29;10.03;;;8.17;;
19651;SDS011;9974;52.146;14.668;2022-09-29T03:19:55;11.37;;;7.17;;
19651;SDS011;9974;52.146;14.668;2022-09-29T03:22:21;10.77;;;7.70;;
19651;SDS011;9974;52.146;14.668;2022-09-29T03:24:48;10.70;;;8.00;;
19651;SDS011;9974;52.146;14.668;2022-09-29T03:27:14;10.67;;;8.30;;
19651;SDS011;9974;52.146;14.668;2022-09-29T03:29:40;15.17;;;10.10;;
19651;SDS011;9974;52.146;14.668;2022-09-29T03:32:06;15.43;;;11.17;;
19651;SDS011;9974;52.146;14.668;2022-09-29T03:34:32;18.37;;;11.93;;
19651;SDS011;9974;52.146;14.668;2022-09-29T03:36:58;18.27;;;12.53;;
19651;SDS011;9974;52.146;14.668;2022-09-29T03:39:24;17.63;;;12.43;;
19651;SDS011;9974;52.146;14.668;2022-09-29T03:41:50;16.27;;;11.93;;
19651;SDS011;9974;52.146;14.668;2022-09-29T03:44:17;15.10;;;10.87;;
19651;SDS011;9974;52.146;14.668;2022-09-29T03:46:43;13.87;;;9.73;;
19651;SDS011;9974;52.146;14.668;2022-09-29T03:49:10;18.70;;;10.67;;
19651;SDS011;9974;52.146;14.668;2022-09-29T03:51:36;13.37;;;9.17;;
19651;SDS011;9974;52.146;14.668;2022-09-29T03:54:02;12.20;;;9.57;;
19651;SDS011;9974;52.146;14.668;2022-09-29T03:56:28;13.53;;;9.53;;
19651;SDS011;9974;52.146;14.668;2022-09-29T03:58:55;12.43;;;9.20;;
19651;SDS011;9974;52.146;14.668;2022-09-29T04:01:21;15.13;;;10.50;;
19651;SDS011;9974;52.146;14.668;2022-09-29T04:03:47;13.43;;;10.43;;
19651;SDS011;9974;52.146;14.668;2022-09-29T04:06:13;13.90;;;9.43;;
19651;SDS011;9974;52.146;14.668;2022-09-29T04:08:39;14.87;;;9.70;;
19651;SDS011;9974;52.146;14.668;2022-09-29T04:11:05;14.13;;;10.20;;
19651;SDS011;9974;52.146;14.668;2022-09-29T04:13:31;14.93;;;11.40;;
19651;SDS011;9974;52.146;14.668;2022-09-29T04:16:01;13.80;;;9.70;;
19651;SDS011;9974;52.146;14.668;2022-09-29T04:18:29;16.57;;;9.57;;
19651;SDS011;9974;52.146;14.668;2022-09-29T04:20:55;14.63;;;10.47;;
19651;SDS011;9974;52.146;14.668;2022-09-29T04:23:24;14.03;;;10.57;;
19651;SDS011;9974;52.146;14.668;2022-09-29T04:25:51;14.50;;;10.50;;
19651;SDS011;9974;52.146;14.668;2022-09-29T04:28:17;14.63;;;9.83;;
19651;SDS011;9974;52.146;14.668;2022-09-29T04:30:43;15.37;;;10.57;;
19651;SDS011;9974;52.146;14.668;2022-09-29T04:33:09;16.20;;;10.43;;
19651;SDS011;9974;52.146;14.668;2022-09-29T04:35:35;14.50;;;10.77;;
19651;SDS011;9974;52.146;14.668;2022-09-29T04:38:01;16.23;;;9.77;;
19651;SDS011;9974;52.146;14.668;2022-09-29T04:40:27;15.17;;;11.23;;
19651;SDS011;9974;52.146;14.668;2022-09-29T04:42:54;19.10;;;12.63;;
19651;SDS011;9974;52.146;14.668;2022-09-29T04:45:20;15.93;;;12.33;;
19651;SDS011;9974;52.146;14.668;2022-09-29T04:47:46;16.70;;;11.57;;
19651;SDS011;9974;52.146;14.668;2022-09-29T04:50:12;16.77;;;12.17;;
19651;SDS011;9974;52.146;14.668;2022-09-29T04:52:40;15.87;;;11.50;;
19651;SDS011;9974;52.146;14.668;2022-09-29T04:55:07;17.23;;;12.60;;
19651;SDS011;9974;52.146;14.668;2022-09-29T04:57:35;18.03;;;12.53;;
19651;SDS011;9974;52.146;14.668;2022-09-29T05:00:03;16.10;;;12.43;;
19651;SDS011;9974;52.146;14.668;2022-09-29T05:02:30;18.37;;;14.17;;
19651;SDS011;9974;52.146;14.668;2022-09-29T05:04:56;18.93;;;13.37;;
19651;SDS011;9974;52.146;14.668;2022-09-29T05:07:22;21.10;;;13.40;;
19651;SDS011;9974;52.146;14.668;2022-09-29T05:09:48;18.07;;;12.63;;
19651;SDS011;9974;52.146;14.668;2022-09-29T05:12:14;23.77;;;13.73;;
19651;SDS011;9974;52.146;14.668;2022-09-29T05:14:40;22.07;;;13.70;;
19651;SDS011;9974;52.146;14.668;2022-09-29T05:17:06;20.70;;;12.70;;
19651;SDS011;9974;52.146;14.668;2022-09-29T05:19:32;21.30;;;12.70;;
19651;SDS011;9974;52.146;14.668;2022-09-29T05:21:58;16.03;;;11.13;;
19651;SDS011;9974;52.146;14.668;2022-09-29T05:24:24;17.57;;;12.37;;
19651;SDS011;9974;52.146;14.668;2022-09-29T05:26:50;18.33;;;11.73;;
19651;SDS011;9974;52.146;14.668;2022-09-29T05:29:16;17.17;;;11.97;;
19651;SDS011;9974;52.146;14.668;2022-09-29T05:31:42;18.07;;;13.47;;
19651;SDS011;9974;52.146;14.668;2022-09-29T05:34:09;16.60;;;12.17;;
19651;SDS011;9974;52.146;14.668;2022-09-29T05:36:35;19.73;;;12.87;;
19651;SDS011;9974;52.146;14.668;2022-09-29T05:39:01;16.87;;;12.47;;
19651;SDS011;9974;52.146;14.668;2022-09-29T05:41:26;15.50;;;10.73;;
19651;SDS011;9974;52.146;14.668;2022-09-29T05:43:53;16.87;;;12.23;;
19651;SDS011;9974;52.146;14.668;2022-09-29T05:46:20;16.37;;;11.97;;
19651;SDS011;9974;52.146;14.668;2022-09-29T05:48:47;15.40;;;11.83;;
19651;SDS011;9974;52.146;14.668;2022-09-29T05:51:16;16.33;;;12.60;;
19651;SDS011;9974;52.146;14.668;2022-09-29T05:53:44;17.27;;;11.43;;
19651;SDS011;9974;52.146;14.668;2022-09-29T05:56:11;15.63;;;11.93;;
19651;SDS011;9974;52.146;14.668;2022-09-29T05:58:40;15.33;;;10.83;;
19651;SDS011;9974;52.146;14.668;2022-09-29T06:01:07;16.13;;;11.93;;
19651;SDS011;9974;52.146;14.668;2022-09-29T06:03:34;17.00;;;12.47;;
19651;SDS011;9974;52.146;14.668;2022-09-29T06:06:07;17.00;;;11.00;;
19651;SDS011;9974;52.146;14.668;2022-09-29T06:08:35;16.93;;;11.70;;
19651;SDS011;9974;52.146;14.668;2022-09-29T06:11:02;14.80;;;10.93;;
19651;SDS011;9974;52.146;14.668;2022-09-29T06:13:36;15.53;;;12.30;;
19651;SDS011;9974;52.146;14.668;2022-09-29T06:16:07;15.80;;;11.13;;
19651;SDS011;9974;52.146;14.668;2022-09-29T06:18:35;18.50;;;11.90;;
19651;SDS011;9974;52.146;14.668;2022-09-29T06:21:02;14.30;;;10.93;;
19651;SDS011;9974;52.146;14.668;2022-09-29T06:23:30;15.50;;;11.80;;
19651;SDS011;9974;52.146;14.668;2022-09-29T06:25:58;19.10;;;12.73;;
19651;SDS011;9974;52.146;14.668;2022-09-29T06:28:28;17.30;;;12.03;;
19651;SDS011;9974;52.146;14.668;2022-09-29T06:30:59;16.40;;;12.53;;
19651;SDS011;9974;52.146;14.668;2022-09-29T06:33:27;17.47;;;11.70;;
19651;SDS011;9974;52.146;14.668;2022-09-29T06:35:53;15.83;;;11.87;;
19651;SDS011;9974;52.146;14.668;2022-09-29T06:38:38;15.03;;;11.07;;
19651;SDS011;9974;52.146;14.668;2022-09-29T06:41:05;16.07;;;11.80;;
19651;SDS011;9974;52.146;14.668;2022-09-29T06:43:32;17.83;;;12.17;;
19651;SDS011;9974;52.146;14.668;2022-09-29T06:45:58;13.53;;;10.87;;
19651;SDS011;9974;52.146;14.668;2022-09-29T06:48:24;16.83;;;11.47;;
19651;SDS011;9974;52.146;14.668;2022-09-29T06:50:50;17.90;;;11.60;;
19651;SDS011;9974;52.146;14.668;2022-09-29T06:53:16;16.90;;;11.47;;
19651;SDS011;9974;52.146;14.668;2022-09-29T06:55:42;15.68;;;11.00;;
19651;SDS011;9974;52.146;14.668;2022-09-29T06:58:08;15.63;;;11.53;;
19651;SDS011;9974;52.146;14.668;2022-09-29T07:00:34;15.70;;;11.53;;
19651;SDS011;9974;52.146;14.668;2022-09-29T07:03:02;15.30;;;11.83;;
19651;SDS011;9974;52.146;14.668;2022-09-29T07:05:28;15.83;;;10.90;;
19651;SDS011;9974;52.146;14.668;2022-09-29T07:07:53;16.20;;;12.10;;
19651;SDS011;9974;52.146;14.668;2022-09-29T07:10:20;15.47;;;11.33;;
19651;SDS011;9974;52.146;14.668;2022-09-29T07:12:46;17.87;;;11.70;;
19651;SDS011;9974;52.146;14.668;2022-09-29T07:15:12;15.20;;;11.23;;
19651;SDS011;9974;52.146;14.668;2022-09-29T07:17:38;19.33;;;11.40;;
19651;SDS011;9974;52.146;14.668;2022-09-29T07:20:04;18.27;;;11.47;;
19651;SDS011;9974;52.146;14.668;2022-09-29T07:22:31;16.80;;;11.43;;
19651;SDS011;9974;52.146;14.668;2022-09-29T07:24:57;15.67;;;10.43;;
19651;SDS011;9974;52.146;14.668;2022-09-29T07:27:23;15.73;;;11.75;;
19651;SDS011;9974;52.146;14.668;2022-09-29T07:29:49;16.63;;;11.27;;
19651;SDS011;9974;52.146;14.668;2022-09-29T07:32:16;20.40;;;11.27;;
19651;SDS011;9974;52.146;14.668;2022-09-29T07:34:42;13.73;;;10.23;;
19651;SDS011;9974;52.146;14.668;2022-09-29T07:37:08;16.00;;;11.43;;
19651;SDS011;9974;52.146;14.668;2022-09-29T07:39:37;16.07;;;10.97;;
19651;SDS011;9974;52.146;14.668;2022-09-29T07:42:03;14.95;;;10.25;;
19651;SDS011;9974;52.146;14.668;2022-09-29T07:44:29;14.35;;;10.23;;
19651;SDS011;9974;52.146;14.668;2022-09-29T07:46:56;15.23;;;10.48;;
19651;SDS011;9974;52.146;14.668;2022-09-29T07:49:22;12.93;;;9.73;;
19651;SDS011;9974;52.146;14.668;2022-09-29T07:51:48;14.00;;;10.68;;
19651;SDS011;9974;52.146;14.668;2022-09-29T07:54:14;14.00;;;10.27;;
19651;SDS011;9974;52.146;14.668;2022-09-29T07:56:39;13.85;;;9.80;;
19651;SDS011;9974;52.146;14.668;2022-09-29T07:59:06;16.42;;;10.70;;
19651;SDS011;9974;52.146;14.668;2022-09-29T08:01:33;13.90;;;9.05;;
19651;SDS011;9974;52.146;14.668;2022-09-29T08:03:59;15.00;;;10.75;;
19651;SDS011;9974;52.146;14.668;2022-09-29T08:06:26;13.27;;;9.68;;
19651;SDS011;9974;52.146;14.668;2022-09-29T08:08:52;16.73;;;9.97;;
19651;SDS011;9974;52.146;14.668;2022-09-29T08:11:18;13.60;;;10.45;;
19651;SDS011;9974;52.146;14.668;2022-09-29T08:13:46;14.13;;;10.35;;
19651;SDS011;9974;52.146;14.668;2022-09-29T08:16:14;17.00;;;10.05;;
19651;SDS011;9974;52.146;14.668;2022-09-29T08:18:40;15.63;;;10.57;;
19651;SDS011;9974;52.146;14.668;2022-09-29T08:21:07;16.73;;;11.68;;
19651;SDS011;9974;52.146;14.668;2022-09-29T08:23:36;13.98;;;10.68;;
19651;SDS011;9974;52.146;14.668;2022-09-29T08:26:07;15.75;;;10.65;;
19651;SDS011;9974;52.146;14.668;2022-09-29T08:28:36;14.23;;;9.63;;
19651;SDS011;9974;52.146;14.668;2022-09-29T08:31:03;18.40;;;11.73;;
19651;SDS011;9974;52.146;14.668;2022-09-29T08:33:38;14.25;;;10.40;;
19651;SDS011;9974;52.146;14.668;2022-09-29T08:36:04;13.07;;;10.18;;
19651;SDS011;9974;52.146;14.668;2022-09-29T08:38:39;15.90;;;9.68;;
19651;SDS011;9974;52.146;14.668;2022-09-29T08:44:43;13.52;;;10.55;;
19651;SDS011;9974;52.146;14.668;2022-09-29T08:50:00;15.75;;;10.25;;
19651;SDS011;9974;52.146;14.668;2022-09-29T08:52:54;17.65;;;11.38;;
19651;SDS011;9974;52.146;14.668;2022-09-29T08:56:12;14.98;;;10.65;;
19651;SDS011;9974;52.146;14.668;2022-09-29T08:58:24;14.52;;;10.35;;
19651;SDS011;9974;52.146;14.668;2022-09-29T09:09:54;14.88;;;10.60;;
19651;SDS011;9974;52.146;14.668;2022-09-29T09:15:13;17.00;;;10.77;;
19651;SDS011;9974;52.146;14.668;2022-09-29T09:18:09;13.82;;;10.15;;
19651;SDS011;9974;52.146;14.668;2022-09-29T09:23:52;14.80;;;10.07;;
19651;SDS011;9974;52.146;14.668;2022-09-29T09:26:30;16.27;;;11.13;;
19651;SDS011;9974;52.146;14.668;2022-09-29T09:29:12;14.55;;;10.48;;
19651;SDS011;9974;52.146;14.668;2022-09-29T09:31:43;17.10;;;11.35;;
19651;SDS011;9974;52.146;14.668;2022-09-29T09:34:44;15.93;;;11.43;;
19651;SDS011;9974;52.146;14.668;2022-09-29T09:37:18;15.50;;;10.60;;
19651;SDS011;9974;52.146;14.668;2022-09-29T09:42:43;17.70;;;10.27;;
19651;SDS011;9974;52.146;14.668;2022-09-29T09:45:36;13.68;;;10.35;;
19651;SDS011;9974;52.146;14.668;2022-09-29T09:48:16;14.77;;;11.00;;
19651;SDS011;9974;52.146;14.668;2022-09-29T09:50:52;15.55;;;10.48;;
19651;SDS011;9974;52.146;14.668;2022-09-29T09:53:20;13.90;;;9.52;;
19651;SDS011;9974;52.146;14.668;2022-09-29T09:58:56;12.10;;;8.23;;
19651;SDS011;9974;52.146;14.668;2022-09-29T10:01:48;10.85;;;8.15;;
19651;SDS011;9974;52.146;14.668;2022-09-29T10:04:14;11.15;;;8.48;;
19651;SDS011;9974;52.146;14.668;2022-09-29T10:06:40;15.10;;;8.15;;
19651;SDS011;9974;52.146;14.668;2022-09-29T10:09:08;10.48;;;7.70;;
19651;SDS011;9974;52.146;14.668;2022-09-29T10:11:40;10.85;;;7.97;;
19651;SDS011;9974;52.146;14.668;2022-09-29T10:14:12;10.05;;;7.53;;
19651;SDS011;9974;52.146;14.668;2022-09-29T10:16:54;10.43;;;7.38;;
19651;SDS011;9974;52.146;14.668;2022-09-29T10:22:23;10.68;;;7.18;;
19651;SDS011;9974;52.146;14.668;2022-09-29T10:24:52;9.55;;;7.40;;
19651;SDS011;9974;52.146;14.668;2022-09-29T10:27:39;10.20;;;7.50;;
19651;SDS011;9974;52.146;14.668;2022-09-29T10:32:47;10.40;;;7.18;;
19651;SDS011;9974;52.146;14.668;2022-09-29T10:35:37;10.32;;;6.53;;
19651;SDS011;9974;52.146;14.668;2022-09-29T10:38:05;11.60;;;6.47;;
19651;SDS011;9974;52.146;14.668;2022-09-29T10:43:35;13.57;;;6.63;;
19651;SDS011;9974;52.146;14.668;2022-09-29T10:46:04;8.55;;;5.80;;
19651;SDS011;9974;52.146;14.668;2022-09-29T10:49:06;8.10;;;5.15;;
19651;SDS011;9974;52.146;14.668;2022-09-29T10:51:39;7.13;;;5.60;;
19651;SDS011;9974;52.146;14.668;2022-09-29T10:54:19;9.05;;;5.60;;
19651;SDS011;9974;52.146;14.668;2022-09-29T10:56:49;6.47;;;5.40;;
19651;SDS011;9974;52.146;14.668;2022-09-29T10:59:16;6.60;;;4.88;;
19651;SDS011;9974;52.146;14.668;2022-09-29T11:01:44;7.55;;;5.18;;
19651;SDS011;9974;52.146;14.668;2022-09-29T11:04:22;9.20;;;6.00;;
19651;SDS011;9974;52.146;14.668;2022-09-29T11:07:04;9.00;;;4.88;;
19651;SDS011;9974;52.146;14.668;2022-09-29T11:09:37;6.97;;;4.55;;
19651;SDS011;9974;52.146;14.668;2022-09-29T11:12:19;6.40;;;4.60;;
19651;SDS011;9974;52.146;14.668;2022-09-29T11:17:53;7.35;;;4.60;;
19651;SDS011;9974;52.146;14.668;2022-09-29T11:20:20;8.55;;;5.07;;
19651;SDS011;9974;52.146;14.668;2022-09-29T11:23:00;7.30;;;5.38;;
19651;SDS011;9974;52.146;14.668;2022-09-29T11:25:48;6.95;;;4.72;;
19651;SDS011;9974;52.146;14.668;2022-09-29T11:28:29;8.57;;;5.07;;
19651;SDS011;9974;52.146;14.668;2022-09-29T11:39:43;8.50;;;6.47;;
19651;SDS011;9974;52.146;14.668;2022-09-29T11:42:39;7.07;;;4.10;;
19651;SDS011;9974;52.146;14.668;2022-09-29T11:45:44;5.30;;;3.75;;
19651;SDS011;9974;52.146;14.668;2022-09-29T11:48:24;3.58;;;2.40;;
19651;SDS011;9974;52.146;14.668;2022-09-29T11:51:48;3.92;;;2.70;;
19651;SDS011;9974;52.146;14.668;2022-09-29T11:54:33;7.35;;;3.63;;
19651;SDS011;9974;52.146;14.668;2022-09-29T11:57:31;5.43;;;2.80;;
19651;SDS011;9974;52.146;14.668;2022-09-29T12:00:37;4.80;;;3.05;;
19651;SDS011;9974;52.146;14.668;2022-09-29T12:18:25;5.13;;;3.25;;
19651;SDS011;9974;52.146;14.668;2022-09-29T12:20:58;4.10;;;2.78;;
19651;SDS011;9974;52.146;14.668;2022-09-29T12:23:28;3.85;;;2.65;;
19651;SDS011;9974;52.146;14.668;2022-09-29T12:25:57;3.75;;;2.55;;
19651;SDS011;9974;52.146;14.668;2022-09-29T12:28:41;4.70;;;3.20;;
19651;SDS011;9974;52.146;14.668;2022-09-29T12:31:24;6.45;;;4.10;;
19651;SDS011;9974;52.146;14.668;2022-09-29T12:33:57;4.47;;;3.20;;
19651;SDS011;9974;52.146;14.668;2022-09-29T12:39:40;3.88;;;2.70;;
19651;SDS011;9974;52.146;14.668;2022-09-29T12:42:31;4.10;;;2.40;;
19651;SDS011;9974;52.146;14.668;2022-09-29T12:45:13;4.97;;;3.63;;
19651;SDS011;9974;52.146;14.668;2022-09-29T12:50:26;6.65;;;3.60;;
19651;SDS011;9974;52.146;14.668;2022-09-29T12:53:28;6.63;;;3.80;;
19651;SDS011;9974;52.146;14.668;2022-09-29T12:56:03;6.32;;;4.10;;
19651;SDS011;9974;52.146;14.668;2022-09-29T12:58:42;5.70;;;4.40;;
19651;SDS011;9974;52.146;14.668;2022-09-29T13:07:23;5.70;;;3.97;;
19651;SDS011;9974;52.146;14.668;2022-09-29T13:10:28;6.47;;;3.72;;
19651;SDS011;9974;52.146;14.668;2022-09-29T13:13:15;5.18;;;3.22;;
19651;SDS011;9974;52.146;14.668;2022-09-29T13:23:03;6.85;;;3.58;;
19651;SDS011;9974;52.146;14.668;2022-09-29T13:26:00;4.82;;;3.15;;
19651;SDS011;9974;52.146;14.668;2022-09-29T13:28:41;7.07;;;3.70;;
19651;SDS011;9974;52.146;14.668;2022-09-29T13:31:16;5.50;;;3.58;;
19651;SDS011;9974;52.146;14.668;2022-09-29T13:33:47;5.60;;;3.88;;
19651;SDS011;9974;52.146;14.668;2022-09-29T13:38:54;5.50;;;3.58;;
19651;SDS011;9974;52.146;14.668;2022-09-29T14:05:34;5.63;;;2.80;;
19651;SDS011;9974;52.146;14.668;2022-09-29T14:10:45;3.83;;;2.42;;
19651;SDS011;9974;52.146;14.668;2022-09-29T14:13:32;3.63;;;2.22;;
19651;SDS011;9974;52.146;14.668;2022-09-29T14:16:29;3.50;;;2.10;;
19651;SDS011;9974;52.146;14.668;2022-09-29T14:29:42;6.28;;;2.88;;
19651;SDS011;9974;52.146;14.668;2022-09-29T14:32:14;3.78;;;2.63;;
19651;SDS011;9974;52.146;14.668;2022-09-29T14:34:47;7.50;;;5.10;;
19651;SDS011;9974;52.146;14.668;2022-09-29T14:37:18;4.60;;;2.72;;
19651;SDS011;9974;52.146;14.668;2022-09-29T14:39:48;3.85;;;2.75;;
19651;SDS011;9974;52.146;14.668;2022-09-29T14:42:34;3.70;;;2.45;;
19651;SDS011;9974;52.146;14.668;2022-09-29T14:45:00;5.07;;;3.13;;
19651;SDS011;9974;52.146;14.668;2022-09-29T14:47:54;3.78;;;3.10;;
19651;SDS011;9974;52.146;14.668;2022-09-29T15:00:19;6.10;;;4.25;;
19651;SDS011;9974;52.146;14.668;2022-09-29T15:02:30;8.40;;;3.92;;
19651;SDS011;9974;52.146;14.668;2022-09-29T15:04:59;4.63;;;2.70;;
19651;SDS011;9974;52.146;14.668;2022-09-29T15:07:45;4.63;;;2.90;;
19651;SDS011;9974;52.146;14.668;2022-09-29T15:10:27;4.32;;;2.83;;
19651;SDS011;9974;52.146;14.668;2022-09-29T15:15:55;6.20;;;3.75;;
19651;SDS011;9974;52.146;14.668;2022-09-29T15:19:17;5.20;;;3.15;;
19651;SDS011;9974;52.146;14.668;2022-09-29T15:25:23;4.20;;;3.08;;
19651;SDS011;9974;52.146;14.668;2022-09-29T15:27:59;5.90;;;3.55;;
19651;SDS011;9974;52.146;14.668;2022-09-29T15:30:36;6.07;;;3.70;;
19651;SDS011;9974;52.146;14.668;2022-09-29T15:33:06;5.30;;;3.92;;
19651;SDS011;9974;52.146;14.668;2022-09-29T15:35:56;7.00;;;3.90;;
19651;SDS011;9974;52.146;14.668;2022-09-29T15:40:54;4.78;;;3.15;;
19651;SDS011;9974;52.146;14.668;2022-09-29T15:43:24;5.60;;;3.13;;
19651;SDS011;9974;52.146;14.668;2022-09-29T15:46:01;5.13;;;3.70;;
19651;SDS011;9974;52.146;14.668;2022-09-29T15:49:13;4.55;;;3.10;;
19651;SDS011;9974;52.146;14.668;2022-09-29T15:52:04;4.10;;;3.17;;
19651;SDS011;9974;52.146;14.668;2022-09-29T15:54:39;5.10;;;3.45;;
19651;SDS011;9974;52.146;14.668;2022-09-29T16:02:48;5.22;;;2.63;;
19651;SDS011;9974;52.146;14.668;2022-09-29T16:05:27;4.55;;;2.72;;
19651;SDS011;9974;52.146;14.668;2022-09-29T16:10:49;4.43;;;3.20;;
19651;SDS011;9974;52.146;14.668;2022-09-29T16:13:24;4.45;;;3.22;;
19651;SDS011;9974;52.146;14.668;2022-09-29T16:15:57;6.35;;;3.42;;
19651;SDS011;9974;52.146;14.668;2022-09-29T16:18:28;7.22;;;4.50;;
19651;SDS011;9974;52.146;14.668;2022-09-29T16:21:07;9.45;;;8.05;;
19651;SDS011;9974;52.146;14.668;2022-09-29T16:23:42;10.90;;;8.45;;
19651;SDS011;9974;52.146;14.668;2022-09-29T16:29:06;10.13;;;6.75;;
19651;SDS011;9974;52.146;14.668;2022-09-29T16:31:49;10.55;;;6.10;;
19651;SDS011;9974;52.146;14.668;2022-09-29T16:39:14;6.20;;;4.47;;
19651;SDS011;9974;52.146;14.668;2022-09-29T16:41:41;5.60;;;3.85;;
19651;SDS011;9974;52.146;14.668;2022-09-29T16:44:23;6.28;;;3.25;;
19651;SDS011;9974;52.146;14.668;2022-09-29T16:46:55;4.32;;;3.72;;
19651;SDS011;9974;52.146;14.668;2022-09-29T16:49:26;6.03;;;3.70;;
19651;SDS011;9974;52.146;14.668;2022-09-29T16:52:00;5.00;;;3.42;;
19651;SDS011;9974;52.146;14.668;2022-09-29T16:54:44;5.82;;;4.00;;
19651;SDS011;9974;52.146;14.668;2022-09-29T16:57:21;5.38;;;3.63;;
19651;SDS011;9974;52.146;14.668;2022-09-29T16:59:55;5.53;;;3.88;;
19651;SDS011;9974;52.146;14.668;2022-09-29T17:02:24;4.70;;;3.40;;
19651;SDS011;9974;52.146;14.668;2022-09-29T17:04:53;5.50;;;3.67;;
19651;SDS011;9974;52.146;14.668;2022-09-29T17:07:21;5.30;;;3.75;;
19651;SDS011;9974;52.146;14.668;2022-09-29T17:09:51;5.03;;;3.42;;
19651;SDS011;9974;52.146;14.668;2022-09-29T17:12:21;6.15;;;4.07;;
19651;SDS011;9974;52.146;14.668;2022-09-29T17:14:47;4.78;;;3.83;;
19651;SDS011;9974;52.146;14.668;2022-09-29T17:17:15;6.20;;;5.03;;
19651;SDS011;9974;52.146;14.668;2022-09-29T17:19:46;13.30;;;8.13;;
19651;SDS011;9974;52.146;14.668;2022-09-29T17:22:21;12.57;;;6.35;;
19651;SDS011;9974;52.146;14.668;2022-09-29T17:24:52;9.20;;;6.95;;
19651;SDS011;9974;52.146;14.668;2022-09-29T17:27:18;9.10;;;6.40;;
19651;SDS011;9974;52.146;14.668;2022-09-29T17:30:03;10.77;;;8.55;;
19651;SDS011;9974;52.146;14.668;2022-09-29T17:32:30;12.15;;;8.57;;
19651;SDS011;9974;52.146;14.668;2022-09-29T17:34:56;11.57;;;8.88;;
19651;SDS011;9974;52.146;14.668;2022-09-29T17:37:22;15.65;;;8.65;;
19651;SDS011;9974;52.146;14.668;2022-09-29T17:39:49;13.32;;;9.23;;
19651;SDS011;9974;52.146;14.668;2022-09-29T17:42:14;12.50;;;9.15;;
19651;SDS011;9974;52.146;14.668;2022-09-29T17:44:41;11.90;;;9.18;;
19651;SDS011;9974;52.146;14.668;2022-09-29T17:47:12;10.93;;;8.93;;
19651;SDS011;9974;52.146;14.668;2022-09-29T17:49:43;11.00;;;8.50;;
19651;SDS011;9974;52.146;14.668;2022-09-29T17:52:14;12.20;;;8.85;;
19651;SDS011;9974;52.146;14.668;2022-09-29T17:54:43;12.48;;;10.18;;
19651;SDS011;9974;52.146;14.668;2022-09-29T17:57:21;17.05;;;11.30;;
19651;SDS011;9974;52.146;14.668;2022-09-29T17:59:51;14.57;;;9.65;;
19651;SDS011;9974;52.146;14.668;2022-09-29T18:02:18;13.35;;;10.02;;
19651;SDS011;9974;52.146;14.668;2022-09-29T18:04:44;14.18;;;9.85;;
19651;SDS011;9974;52.146;14.668;2022-09-29T18:07:12;14.13;;;10.35;;
19651;SDS011;9974;52.146;14.668;2022-09-29T18:09:39;11.55;;;9.32;;
19651;SDS011;9974;52.146;14.668;2022-09-29T18:12:06;13.68;;;9.73;;
19651;SDS011;9974;52.146;14.668;2022-09-29T18:14:33;12.55;;;10.02;;
19651;SDS011;9974;52.146;14.668;2022-09-29T18:17:00;12.18;;;9.50;;